Time;durP1;ratioP1;P1;durP2;ratioP2;P2;SDS_P1;SDS_P2;PMS_P1;PMS_P2;Temp;Humidity;BMP_temperature;BMP_pressure;BME280_temperature;BME280_humidity;BME280_pressure;Samples;Min_cycle;Max_cycle;Signal;HPM_P1;HPM_P2
2022/08/16 00:00:33;;;;;;;6.20;5.70;;;20.80;99.90;;;;;;5088384;28;20458;-45
2022/08/16 00:02:59;;;;;;;6.23;5.40;;;20.80;99.90;;;;;;5088132;28;20422;-44
2022/08/16 00:05:25;;;;;;;6.27;5.63;;;20.80;99.90;;;;;;5088776;28;20446;-47
2022/08/16 00:07:51;;;;;;;5.60;5.20;;;20.80;99.90;;;;;;5088032;28;20848;-46
2022/08/16 00:10:19;;;;;;;7.17;6.30;;;20.70;99.90;;;;;;5088477;28;20469;-45
2022/08/16 00:12:45;;;;;;;6.60;5.90;;;20.70;99.90;;;;;;5089176;28;20418;-44
2022/08/16 00:15:22;;;;;;;5.97;5.57;;;20.70;99.90;;;;;;5088579;28;20423;-44
2022/08/16 00:17:48;;;;;;;5.83;5.33;;;20.60;99.90;;;;;;5088508;28;20422;-44
2022/08/16 00:20:14;;;;;;;6.40;5.80;;;20.60;99.90;;;;;;5086979;28;20527;-44
2022/08/16 00:22:41;;;;;;;6.53;5.60;;;20.60;99.90;;;;;;5088350;28;20223;-44
2022/08/16 00:25:10;;;;;;;5.50;5.00;;;20.60;99.90;;;;;;5088675;28;20498;-44
2022/08/16 00:27:36;;;;;;;5.47;5.07;;;20.60;99.90;;;;;;5087640;28;20425;-48
2022/08/16 00:30:04;;;;;;;6.20;5.70;;;20.70;99.90;;;;;;5088526;28;20509;-45
2022/08/16 00:32:30;;;;;;;6.67;6.17;;;20.60;99.90;;;;;;5087953;28;20180;-45
2022/08/16 00:34:56;;;;;;;6.03;5.53;;;20.60;99.90;;;;;;5088276;28;20437;-48
2022/08/16 00:37:24;;;;;;;6.03;5.50;;;20.60;99.90;;;;;;5087601;28;20192;-44
2022/08/16 00:39:51;;;;;;;6.40;5.90;;;20.60;99.90;;;;;;5088280;28;20184;-44
2022/08/16 00:42:17;;;;;;;6.10;5.60;;;20.60;99.90;;;;;;5088194;28;20544;-44
2022/08/16 00:44:50;;;;;;;6.03;5.53;;;20.60;99.90;;;;;;5088729;28;20438;-45
2022/08/16 00:47:18;;;;;;;5.83;5.30;;;20.60;99.90;;;;;;5087569;28;20265;-44
2022/08/16 00:49:44;;;;;;;8.83;6.00;;;20.50;99.90;;;;;;5088246;28;20479;-45
2022/08/16 00:52:10;;;;;;;6.17;5.57;;;20.50;99.90;;;;;;5088029;28;20815;-44
2022/08/16 00:54:36;;;;;;;6.50;6.00;;;20.50;99.90;;;;;;5088421;28;20222;-44
2022/08/16 00:57:02;;;;;;;6.57;6.07;;;20.50;99.90;;;;;;5087342;28;20953;-47
2022/08/16 00:59:32;;;;;;;6.37;5.87;;;20.50;99.90;;;;;;5088257;28;20496;-44
2022/08/16 01:01:59;;;;;;;6.10;5.60;;;20.50;99.90;;;;;;5087861;28;20461;-45
2022/08/16 01:04:26;;;;;;;6.07;5.57;;;20.50;99.90;;;;;;5087765;28;20438;-44
2022/08/16 01:06:52;;;;;;;6.00;5.50;;;20.50;99.90;;;;;;5087500;28;20940;-47
2022/08/16 01:09:19;;;;;;;6.20;5.70;;;20.50;99.90;;;;;;5087941;28;20500;-44
2022/08/16 01:11:45;;;;;;;6.00;5.50;;;20.60;99.90;;;;;;5087762;28;20461;-46
2022/08/16 01:14:20;;;;;;;6.37;5.87;;;20.50;99.90;;;;;;5087809;28;21098;-44
2022/08/16 01:16:46;;;;;;;7.10;6.10;;;20.60;99.90;;;;;;5087417;28;20421;-44
2022/08/16 01:19:40;;;;;;;6.43;5.70;;;20.60;99.90;;;;;;5087470;28;20422;-44
2022/08/16 01:22:16;;;;;;;6.33;5.80;;;20.60;99.90;;;;;;5087974;28;20550;-44
2022/08/16 01:24:46;;;;;;;6.47;5.87;;;20.60;99.90;;;;;;5087855;28;20426;-45
2022/08/16 01:27:25;;;;;;;5.73;5.23;;;20.70;99.90;;;;;;5085771;28;20606;-45
2022/08/16 01:29:56;;;;;;;5.60;5.10;;;20.60;99.90;;;;;;5087626;28;20509;-43
2022/08/16 01:32:22;;;;;;;6.50;5.90;;;20.70;99.90;;;;;;5087774;28;20479;-43
2022/08/16 01:34:48;;;;;;;5.47;5.07;;;20.60;99.90;;;;;;5087933;28;20423;-44
2022/08/16 01:37:14;;;;;;;5.23;4.73;;;20.60;99.90;;;;;;5087178;28;20254;-44
2022/08/16 01:39:40;;;;;;;7.87;6.07;;;20.60;99.90;;;;;;5087177;28;20181;-46
2022/08/16 01:42:08;;;;;;;7.03;5.50;;;20.60;99.90;;;;;;5087600;28;20579;-45
2022/08/16 01:44:35;;;;;;;6.50;5.90;;;20.60;99.90;;;;;;5087641;28;20579;-45
2022/08/16 01:47:01;;;;;;;6.00;5.53;;;20.70;99.90;;;;;;5091179;28;20418;-44
2022/08/16 01:49:32;;;;;;;5.60;5.10;;;20.70;99.90;;;;;;5091650;28;20509;-46
2022/08/16 01:52:11;;;;;;;6.53;5.80;;;20.70;99.90;;;;;;5091739;28;20422;-46
2022/08/16 01:54:38;;;;;;;5.60;5.10;;;20.70;99.90;;;;;;5091534;28;20985;-44
2022/08/16 01:57:04;;;;;;;6.37;5.87;;;20.70;99.90;;;;;;5090634;28;20422;-43
2022/08/16 01:59:32;;;;;;;5.60;5.20;;;20.70;99.90;;;;;;5091455;28;20437;-44
2022/08/16 02:01:58;;;;;;;6.10;5.37;;;20.70;99.90;;;;;;5091053;28;20473;-45
2022/08/16 02:04:25;;;;;;;5.93;5.50;;;20.70;99.90;;;;;;5091653;28;20789;-46
2022/08/16 02:06:51;;;;;;;5.93;5.43;;;20.80;99.90;;;;;;5090145;28;20448;-45
2022/08/16 02:09:20;;;;;;;5.83;5.30;;;20.70;99.90;;;;;;5091258;28;20909;-44
2022/08/16 02:11:48;;;;;;;5.53;5.07;;;20.70;99.90;;;;;;5091078;28;20620;-44
2022/08/16 02:14:15;;;;;;;5.97;5.40;;;20.70;99.90;;;;;;5091481;28;20812;-44
2022/08/16 02:16:43;;;;;;;5.80;5.40;;;20.70;99.90;;;;;;5090560;28;20468;-45
2022/08/16 02:19:10;;;;;;;6.10;5.60;;;20.60;99.90;;;;;;5090766;28;20909;-44
2022/08/16 02:21:36;;;;;;;7.13;6.40;;;20.60;99.90;;;;;;5089452;28;20528;-45
2022/08/16 02:24:03;;;;;;;5.80;5.30;;;20.50;99.90;;;;;;5091492;28;20805;-45
2022/08/16 02:26:29;;;;;;;6.53;5.93;;;20.50;99.90;;;;;;5091011;28;20821;-45
2022/08/16 02:28:55;;;;;;;5.93;5.43;;;20.50;99.90;;;;;;5090094;28;20426;-44
2022/08/16 02:31:21;;;;;;;6.40;5.80;;;20.50;99.90;;;;;;5090789;28;20207;-44
2022/08/16 02:33:47;;;;;;;6.30;5.70;;;20.60;99.90;;;;;;5090786;28;20505;-44
2022/08/16 02:36:14;;;;;;;5.33;4.90;;;20.60;99.90;;;;;;5091012;28;20916;-45
2022/08/16 02:38:40;;;;;;;6.20;5.53;;;20.70;99.90;;;;;;5089963;28;20422;-45
2022/08/16 02:41:07;;;;;;;8.13;5.50;;;20.70;99.90;;;;;;5090671;28;20494;-44
2022/08/16 02:43:34;;;;;;;6.43;5.83;;;20.70;99.90;;;;;;5090922;28;20415;-44
2022/08/16 02:46:01;;;;;;;6.20;5.60;;;20.70;99.90;;;;;;5089206;28;20438;-45
2022/08/16 02:48:29;;;;;;;6.13;5.63;;;20.70;99.90;;;;;;5089716;28;20446;-43
2022/08/16 02:50:57;;;;;;;6.20;5.70;;;20.70;99.90;;;;;;5090327;28;20874;-44
2022/08/16 02:53:23;;;;;;;6.30;5.80;;;20.70;99.90;;;;;;5090253;28;20427;-44
2022/08/16 02:55:48;;;;;;;6.03;5.53;;;20.70;99.90;;;;;;5090206;28;20457;-46
2022/08/16 02:58:14;;;;;;;5.93;5.40;;;20.70;99.90;;;;;;5089710;28;20193;-43
2022/08/16 03:00:40;;;;;;;6.20;5.70;;;20.70;99.90;;;;;;5090127;28;20243;-45
2022/08/16 03:03:06;;;;;;;6.43;5.93;;;20.60;99.90;;;;;;5089983;28;20188;-44
2022/08/16 03:05:32;;;;;;;6.10;5.50;;;20.50;99.90;;;;;;5089847;28;20442;-46
2022/08/16 03:07:58;;;;;;;5.97;5.47;;;20.50;99.90;;;;;;5089577;28;21035;-45
2022/08/16 03:10:24;;;;;;;6.07;5.57;;;20.50;99.90;;;;;;5090258;28;20511;-43
2022/08/16 03:12:50;;;;;;;6.70;5.73;;;20.40;99.90;;;;;;5090006;28;20204;-44
2022/08/16 03:15:17;;;;;;;5.93;5.40;;;20.40;99.90;;;;;;5089608;28;20424;-45
2022/08/16 03:17:43;;;;;;;6.10;5.60;;;20.40;99.90;;;;;;5089327;28;20663;-44
2022/08/16 03:20:12;;;;;;;6.57;5.97;;;20.30;99.90;;;;;;5088015;28;20505;-46
2022/08/16 03:22:38;;;;;;;6.43;5.93;;;20.30;99.90;;;;;;5089718;28;20458;-44
2022/08/16 03:25:06;;;;;;;6.70;6.10;;;20.30;99.90;;;;;;5088512;28;20517;-44
2022/08/16 03:27:34;;;;;;;6.27;5.60;;;20.30;99.90;;;;;;5089039;28;20812;-45
2022/08/16 03:30:18;;;;;;;6.10;5.60;;;20.30;99.90;;;;;;5089804;28;20419;-47
2022/08/16 03:32:46;;;;;;;6.43;5.93;;;20.20;99.90;;;;;;5089495;28;20422;-44
2022/08/16 03:35:11;;;;;;;6.03;5.33;;;20.20;99.90;;;;;;5089807;28;20784;-45
2022/08/16 03:37:42;;;;;;;6.37;5.60;;;20.10;99.90;;;;;;5088884;28;20430;-44
2022/08/16 03:40:08;;;;;;;6.83;6.23;;;20.00;99.90;;;;;;5089442;28;20188;-44
2022/08/16 03:42:34;;;;;;;6.00;5.23;;;19.90;99.90;;;;;;5088993;28;20529;-45
2022/08/16 03:45:00;;;;;;;6.50;6.00;;;19.80;99.90;;;;;;5089446;28;20529;-46
2022/08/16 03:47:28;;;;;;;6.23;5.73;;;19.70;99.90;;;;;;5088941;28;20195;-44
2022/08/16 03:49:54;;;;;;;6.53;6.03;;;19.70;99.90;;;;;;5089737;28;20195;-44
2022/08/16 03:52:21;;;;;;;5.70;5.20;;;19.70;99.90;;;;;;5089552;28;20431;-47
2022/08/16 03:54:48;;;;;;;6.43;5.63;;;19.70;99.90;;;;;;5089358;28;20441;-47
2022/08/16 03:57:15;;;;;;;6.73;5.50;;;19.60;99.90;;;;;;5087911;28;20435;-44
2022/08/16 03:59:40;;;;;;;7.13;6.20;;;19.60;99.90;;;;;;5089284;28;20411;-44
2022/08/16 04:02:07;;;;;;;6.20;5.80;;;19.60;99.90;;;;;;5088751;28;21041;-44
2022/08/16 04:04:34;;;;;;;6.53;5.93;;;19.50;99.90;;;;;;5088992;28;20196;-47
2022/08/16 04:07:02;;;;;;;6.50;5.90;;;19.40;99.90;;;;;;5088387;28;20438;-44
2022/08/16 04:09:32;;;;;;;6.00;5.50;;;19.50;99.90;;;;;;5088371;28;20433;-47
2022/08/16 04:11:57;;;;;;;5.97;5.57;;;19.50;99.90;;;;;;5088774;28;20515;-44
2022/08/16 04:14:23;;;;;;;6.40;5.80;;;19.50;99.90;;;;;;5088680;28;20888;-44
2022/08/16 04:16:49;;;;;;;6.50;5.90;;;19.40;99.90;;;;;;5088172;28;20207;-45
2022/08/16 04:19:15;;;;;;;5.83;5.37;;;19.40;99.90;;;;;;5087249;28;20418;-44
2022/08/16 04:21:41;;;;;;;5.87;5.30;;;19.30;99.90;;;;;;5088347;28;20296;-45
2022/08/16 04:24:06;;;;;;;5.33;4.93;;;19.30;99.90;;;;;;5088191;28;20517;-45
2022/08/16 04:26:32;;;;;;;6.17;5.57;;;19.40;99.90;;;;;;5088081;28;20202;-45
2022/08/16 04:29:03;;;;;;;5.50;5.00;;;19.30;99.90;;;;;;5088383;28;20253;-45
2022/08/16 04:31:29;;;;;;;5.70;5.20;;;19.30;99.90;;;;;;5088549;28;20196;-45
2022/08/16 04:33:58;;;;;;;6.00;5.50;;;19.30;99.90;;;;;;5088564;28;20531;-44
2022/08/16 04:36:27;;;;;;;6.77;6.17;;;19.30;99.90;;;;;;5088318;28;20195;-45
2022/08/16 04:38:55;;;;;;;6.17;5.67;;;19.30;99.90;;;;;;5087344;28;20975;-44
2022/08/16 04:41:21;;;;;;;5.73;5.33;;;19.20;99.90;;;;;;5088404;28;20884;-44
2022/08/16 04:43:47;;;;;;;6.50;5.40;;;19.20;99.90;;;;;;5085345;28;20516;-44
2022/08/16 04:46:15;;;;;;;6.00;5.40;;;19.10;99.90;;;;;;5086105;28;20499;-44
2022/08/16 04:48:41;;;;;;;6.13;5.50;;;19.10;99.90;;;;;;5087162;28;20559;-44
2022/08/16 04:51:08;;;;;;;10.10;5.77;;;19.10;99.90;;;;;;5087951;28;20418;-45
2022/08/16 04:53:34;;;;;;;11.77;6.00;;;19.10;99.90;;;;;;5086662;28;20441;-45
2022/08/16 04:56:00;;;;;;;6.40;5.80;;;19.10;99.90;;;;;;5085768;28;20917;-44
2022/08/16 04:58:25;;;;;;;5.87;5.37;;;19.10;99.90;;;;;;5086293;28;20430;-45
2022/08/16 05:00:51;;;;;;;6.17;5.60;;;19.10;99.90;;;;;;5087966;28;20463;-46
2022/08/16 05:03:17;;;;;;;6.33;5.80;;;19.20;99.90;;;;;;5088495;28;20227;-45
2022/08/16 05:05:43;;;;;;;6.30;5.70;;;19.10;99.90;;;;;;5088419;28;20439;-44
2022/08/16 05:08:10;;;;;;;6.00;5.37;;;19.20;99.90;;;;;;5087375;28;20275;-45
2022/08/16 05:10:36;;;;;;;5.80;5.30;;;19.10;99.90;;;;;;5087965;28;20525;-43
2022/08/16 05:13:04;;;;;;;6.70;6.10;;;19.20;99.90;;;;;;5088211;28;20929;-45
2022/08/16 05:15:29;;;;;;;6.20;5.70;;;19.20;99.90;;;;;;5088003;28;20523;-44
2022/08/16 05:17:55;;;;;;;7.10;6.47;;;19.20;99.90;;;;;;5087439;28;20422;-43
2022/08/16 05:20:22;;;;;;;6.87;6.17;;;19.20;99.90;;;;;;5089434;28;20243;-44
2022/08/16 05:22:47;;;;;;;5.83;5.33;;;19.30;99.90;;;;;;5092077;28;20422;-44
2022/08/16 05:25:14;;;;;;;6.33;5.70;;;19.40;99.90;;;;;;5091929;28;20415;-44
2022/08/16 05:27:41;;;;;;;5.93;5.33;;;19.40;99.90;;;;;;5090093;28;20548;-44
2022/08/16 05:30:11;;;;;;;5.83;5.43;;;19.40;99.90;;;;;;5092156;28;20422;-47
2022/08/16 05:32:39;;;;;;;6.13;5.57;;;19.40;99.90;;;;;;5091775;28;20893;-45
2022/08/16 05:35:07;;;;;;;6.90;6.20;;;19.40;99.90;;;;;;5091748;28;20422;-44
2022/08/16 05:37:34;;;;;;;7.30;5.77;;;19.50;99.90;;;;;;5091053;28;20418;-44
2022/08/16 05:40:00;;;;;;;6.10;5.60;;;19.50;99.90;;;;;;5091795;28;20442;-44
2022/08/16 05:42:26;;;;;;;6.73;6.00;;;19.60;99.90;;;;;;5091628;28;20543;-43
2022/08/16 05:44:51;;;;;;;5.87;5.30;;;19.60;99.90;;;;;;5088764;28;20909;-44
2022/08/16 05:47:17;;;;;;;6.40;5.90;;;19.70;99.90;;;;;;5090641;28;20302;-44
2022/08/16 05:49:43;;;;;;;6.17;5.67;;;19.90;99.90;;;;;;5086832;28;20643;-44
2022/08/16 05:52:10;;;;;;;5.97;5.40;;;19.90;99.90;;;;;;5087009;28;20350;-44
2022/08/16 05:54:36;;;;;;;6.87;6.13;;;20.10;99.90;;;;;;5091651;28;20193;-44
2022/08/16 05:57:02;;;;;;;5.60;4.93;;;20.20;99.90;;;;;;5090705;28;20422;-44
2022/08/16 05:59:27;;;;;;;5.90;5.40;;;20.30;99.90;;;;;;5090390;28;20705;-44
2022/08/16 06:01:53;;;;;;;5.93;5.50;;;20.50;99.90;;;;;;5086217;28;20774;-44
2022/08/16 06:04:21;;;;;;;5.13;4.63;;;20.70;99.90;;;;;;5091009;28;20196;-44
2022/08/16 06:06:47;;;;;;;5.63;5.13;;;20.90;99.90;;;;;;5090744;28;20860;-43
2022/08/16 06:09:15;;;;;;;5.63;5.00;;;21.10;99.90;;;;;;5091120;28;20968;-44
2022/08/16 06:11:42;;;;;;;6.20;5.60;;;21.20;99.90;;;;;;5091211;28;20833;-46
2022/08/16 06:14:08;;;;;;;7.47;5.13;;;21.30;99.90;;;;;;5091104;28;20517;-47
2022/08/16 06:16:33;;;;;;;5.17;4.57;;;21.40;99.90;;;;;;5090597;28;20557;-46
2022/08/16 06:18:59;;;;;;;5.80;5.30;;;21.60;99.90;;;;;;5090336;28;20199;-51
2022/08/16 06:21:25;;;;;;;6.47;5.30;;;21.80;99.90;;;;;;5089427;28;20722;-46
2022/08/16 06:23:52;;;;;;;5.50;4.77;;;21.80;99.90;;;;;;5091101;28;20196;-46
2022/08/16 06:26:18;;;;;;;5.83;5.17;;;22.00;99.90;;;;;;5089793;28;20488;-49
2022/08/16 06:28:44;;;;;;;5.70;5.30;;;22.10;99.90;;;;;;5085767;28;20432;-45
2022/08/16 06:31:11;;;;;;;6.00;5.50;;;22.20;99.90;;;;;;5089788;28;20419;-47
2022/08/16 06:33:37;;;;;;;6.70;5.63;;;22.30;99.90;;;;;;5090546;28;20200;-46
2022/08/16 06:36:04;;;;;;;6.50;5.30;;;22.40;99.90;;;;;;5090944;28;20411;-48
2022/08/16 06:38:29;;;;;;;5.70;5.20;;;22.60;99.90;;;;;;5090678;28;20188;-50
2022/08/16 06:40:55;;;;;;;7.03;5.30;;;22.70;99.90;;;;;;5090529;28;20841;-47
2022/08/16 06:43:22;;;;;;;6.10;5.47;;;22.80;99.90;;;;;;5090882;28;20229;-48
2022/08/16 06:45:48;;;;;;;9.77;5.90;;;22.90;99.90;;;;;;5090520;28;20674;-46
2022/08/16 06:48:13;;;;;;;5.40;5.00;;;23.00;99.90;;;;;;5090167;28;20426;-46
2022/08/16 06:50:39;;;;;;;7.80;5.83;;;23.10;99.90;;;;;;5090012;28;20433;-46
2022/08/16 06:53:06;;;;;;;5.97;5.40;;;23.20;99.90;;;;;;5089072;28;20434;-46
2022/08/16 06:55:33;;;;;;;5.83;5.33;;;23.30;99.90;;;;;;5090121;28;21049;-46
2022/08/16 06:57:59;;;;;;;6.47;5.50;;;23.40;99.90;;;;;;5087063;28;20517;-48
2022/08/16 07:00:26;;;;;;;6.00;5.50;;;23.50;99.90;;;;;;5089497;28;20977;-46
2022/08/16 07:02:52;;;;;;;5.77;5.10;;;23.60;99.90;;;;;;5090065;28;20415;-46
2022/08/16 07:05:18;;;;;;;12.33;5.80;;;23.50;99.90;;;;;;5089467;28;20442;-47
2022/08/16 07:07:46;;;;;;;5.37;4.87;;;23.60;99.90;;;;;;5090239;28;20196;-44
2022/08/16 07:10:12;;;;;;;6.20;5.40;;;23.70;99.90;;;;;;5090326;28;20801;-44
2022/08/16 07:12:39;;;;;;;5.63;5.13;;;23.70;99.90;;;;;;5090116;28;20423;-50
2022/08/16 07:15:06;;;;;;;5.43;4.93;;;23.90;99.90;;;;;;5090438;28;20834;-45
2022/08/16 07:17:32;;;;;;;7.10;6.50;;;23.90;99.90;;;;;;5089772;28;20739;-48
2022/08/16 07:19:59;;;;;;;6.70;6.10;;;23.90;99.90;;;;;;5087958;28;20770;-49
2022/08/16 07:22:25;;;;;;;6.33;5.40;;;23.90;99.90;;;;;;5088484;28;20999;-46
2022/08/16 07:24:51;;;;;;;6.27;5.67;;;23.90;99.90;;;;;;5090546;28;20426;-44
2022/08/16 07:27:17;;;;;;;6.30;5.70;;;23.80;99.90;;;;;;5089141;28;20427;-45
2022/08/16 07:29:43;;;;;;;6.20;5.67;;;23.80;99.90;;;;;;5089577;28;20558;-46
2022/08/16 07:32:10;;;;;;;5.93;5.43;;;23.70;99.90;;;;;;5089933;28;20438;-44
2022/08/16 07:34:35;;;;;;;6.77;6.17;;;23.80;99.90;;;;;;5090080;28;20437;-46
2022/08/16 07:37:09;;;;;;;7.93;5.50;;;23.90;99.90;;;;;;5089246;28;20925;-46
2022/08/16 07:39:35;;;;;;;6.73;6.07;;;23.80;99.90;;;;;;5089523;28;20184;-46
2022/08/16 07:42:01;;;;;;;6.60;5.40;;;23.90;99.90;;;;;;5089547;28;20454;-49
2022/08/16 07:44:27;;;;;;;6.90;5.70;;;23.90;99.90;;;;;;5088972;28;20878;-45
2022/08/16 07:46:53;;;;;;;6.17;5.57;;;24.00;99.90;;;;;;5088936;28;20500;-49
2022/08/16 07:49:19;;;;;;;7.17;6.47;;;24.00;99.90;;;;;;5089300;28;20554;-47
2022/08/16 07:51:45;;;;;;;6.73;5.90;;;24.00;99.90;;;;;;5088437;28;20433;-46
2022/08/16 07:54:10;;;;;;;6.40;5.73;;;24.10;99.90;;;;;;5088211;28;20196;-44
2022/08/16 07:56:36;;;;;;;7.03;6.43;;;24.10;99.90;;;;;;5087767;28;20192;-45
2022/08/16 07:59:03;;;;;;;5.60;5.10;;;24.10;99.90;;;;;;5087739;28;20245;-44
2022/08/16 08:01:29;;;;;;;9.47;6.30;;;24.00;99.90;;;;;;5088134;28;20565;-49
2022/08/16 08:03:55;;;;;;;8.23;6.33;;;24.00;99.90;;;;;;5088045;28;20505;-44
2022/08/16 08:06:23;;;;;;;7.23;6.63;;;24.00;99.90;;;;;;5089299;28;20220;-48
2022/08/16 08:08:49;;;;;;;7.27;6.57;;;24.00;99.90;;;;;;5088445;28;20575;-47
2022/08/16 08:11:16;;;;;;;6.37;5.87;;;24.10;99.90;;;;;;5088830;28;20874;-46
2022/08/16 08:13:42;;;;;;;7.67;7.07;;;24.10;99.90;;;;;;5089070;28;20189;-48
2022/08/16 08:16:11;;;;;;;7.30;6.10;;;24.10;99.90;;;;;;5089173;28;20536;-45
2022/08/16 08:18:37;;;;;;;9.73;6.33;;;24.10;99.90;;;;;;5088381;28;20932;-47
2022/08/16 08:21:03;;;;;;;7.67;6.60;;;24.10;99.90;;;;;;5087968;28;20458;-47
2022/08/16 08:23:28;;;;;;;7.73;6.90;;;24.10;99.90;;;;;;5040384;28;20181;-45
2022/08/16 08:25:54;;;;;;;7.83;6.40;;;24.10;99.90;;;;;;5088504;28;20214;-46
2022/08/16 08:28:20;;;;;;;7.03;6.40;;;24.20;99.90;;;;;;5088134;28;20286;-47
2022/08/16 08:30:46;;;;;;;7.23;6.53;;;24.20;99.90;;;;;;5088730;28;20696;-46
2022/08/16 08:33:12;;;;;;;7.83;7.03;;;24.20;99.90;;;;;;5088798;28;20499;-48
2022/08/16 08:35:38;;;;;;;7.43;6.77;;;24.30;99.90;;;;;;5088686;28;20450;-48
2022/08/16 08:38:07;;;;;;;7.47;6.80;;;24.30;99.90;;;;;;5088487;28;20638;-44
2022/08/16 08:40:34;;;;;;;8.20;7.30;;;24.40;99.90;;;;;;5088046;28;20938;-48
2022/08/16 08:43:01;;;;;;;8.20;6.27;;;24.40;99.90;;;;;;5088516;28;20439;-46
2022/08/16 08:45:28;;;;;;;6.97;6.37;;;24.40;99.90;;;;;;5088647;28;20480;-46
2022/08/16 08:47:55;;;;;;;6.70;6.10;;;24.40;99.90;;;;;;5088039;28;20523;-47
2022/08/16 08:50:21;;;;;;;7.70;7.00;;;24.40;99.90;;;;;;5088598;28;20423;-44
2022/08/16 08:52:47;;;;;;;7.73;6.90;;;24.40;99.90;;;;;;5088172;28;20423;-46
2022/08/16 08:55:14;;;;;;;6.90;6.30;;;24.50;99.90;;;;;;5088145;28;20549;-46
2022/08/16 08:57:44;;;;;;;8.10;6.60;;;24.50;99.90;;;;;;5087540;28;20426;-47
2022/08/16 09:00:12;;;;;;;8.20;7.10;;;24.60;99.90;;;;;;5088513;28;20426;-44
2022/08/16 09:02:38;;;;;;;7.73;7.00;;;24.70;99.90;;;;;;5088246;28;20490;-44
2022/08/16 09:05:04;;;;;;;7.63;6.97;;;24.80;99.90;;;;;;5088493;28;20533;-45
2022/08/16 09:07:30;;;;;;;8.50;7.60;;;24.90;99.90;;;;;;5087493;28;20176;-46
2022/08/16 09:09:56;;;;;;;7.80;7.20;;;25.00;99.90;;;;;;5088423;28;20414;-47
2022/08/16 09:12:22;;;;;;;9.03;8.20;;;25.00;99.90;;;;;;5088311;28;20204;-50
2022/08/16 09:14:48;;;;;;;8.53;7.40;;;25.10;99.90;;;;;;5088289;28;20756;-48
2022/08/16 09:17:14;;;;;;;8.40;7.60;;;25.20;99.90;;;;;;5087681;28;20470;-46
2022/08/16 09:19:40;;;;;;;8.47;7.20;;;25.30;99.90;;;;;;5087130;28;20423;-46
2022/08/16 09:22:10;;;;;;;8.40;7.60;;;25.40;99.90;;;;;;5087918;28;20458;-45
2022/08/16 09:24:36;;;;;;;8.47;7.80;;;25.50;99.90;;;;;;5088103;28;21074;-48
2022/08/16 09:27:02;;;;;;;8.37;7.43;;;25.60;99.90;;;;;;5087452;28;20787;-44
2022/08/16 09:29:28;;;;;;;8.30;7.50;;;25.70;99.90;;;;;;5086446;28;20435;-47
2022/08/16 09:31:57;;;;;;;7.97;7.30;;;25.80;99.90;;;;;;5086787;28;20915;-45
2022/08/16 09:34:23;;;;;;;7.97;7.23;;;25.90;99.90;;;;;;5088063;28;20203;-48
2022/08/16 09:36:49;;;;;;;8.60;7.50;;;26.10;99.90;;;;;;5086966;28;20419;-47
2022/08/16 09:39:16;;;;;;;7.87;7.27;;;26.10;99.90;;;;;;5087812;28;20422;-47
2022/08/16 09:41:43;;;;;;;8.10;7.40;;;26.20;99.90;;;;;;5088054;28;20638;-43
2022/08/16 09:44:09;;;;;;;8.90;7.23;;;26.30;99.60;;;;;;5087856;28;20696;-46
2022/08/16 09:46:34;;;;;;;8.50;7.70;;;26.40;99.50;;;;;;5087373;28;20426;-48
2022/08/16 09:49:00;;;;;;;7.20;6.50;;;26.50;99.30;;;;;;5087639;28;20717;-45
2022/08/16 09:51:26;;;;;;;7.43;6.80;;;26.60;99.50;;;;;;5087414;28;20195;-49
2022/08/16 09:53:54;;;;;;;7.23;6.53;;;26.80;99.90;;;;;;5087747;28;20659;-44
2022/08/16 09:56:29;;;;;;;7.63;7.03;;;26.90;98.70;;;;;;5087777;28;20454;-44
2022/08/16 09:58:57;;;;;;;7.30;6.70;;;27.00;98.70;;;;;;5085880;28;20429;-44
2022/08/16 10:01:24;;;;;;;8.30;7.50;;;27.20;99.00;;;;;;5087671;28;20454;-44
2022/08/16 10:03:53;;;;;;;8.00;7.30;;;27.30;98.70;;;;;;5087551;28;20426;-44
2022/08/16 10:06:21;;;;;;;7.87;7.27;;;27.30;97.50;;;;;;5087711;28;20512;-44
2022/08/16 10:08:47;;;;;;;7.60;7.00;;;27.30;98.40;;;;;;5090680;28;20781;-44
2022/08/16 10:13:58;;;;;;;8.60;7.90;;;27.50;98.10;;;;;;5091281;28;20418;-47
2022/08/16 10:16:24;;;;;;;8.73;7.70;;;27.50;97.40;;;;;;5090875;28;20497;-46
2022/08/16 10:18:50;;;;;;;8.13;7.27;;;27.60;98.20;;;;;;5090373;28;20575;-46
2022/08/16 10:21:16;;;;;;;7.80;7.07;;;27.70;97.80;;;;;;5090168;28;20667;-49
2022/08/16 10:23:43;;;;;;;8.33;7.60;;;27.80;97.10;;;;;;5090998;28;20429;-44
2022/08/16 10:26:09;;;;;;;8.03;7.33;;;27.90;96.50;;;;;;5091243;28;20457;-49
2022/08/16 10:28:35;;;;;;;7.97;7.20;;;28.00;96.60;;;;;;5090408;28;20790;-44
2022/08/16 10:31:03;;;;;;;11.10;7.20;;;28.10;96.00;;;;;;5090819;28;20430;-48
2022/08/16 10:33:29;;;;;;;7.73;7.07;;;28.10;96.00;;;;;;5090832;28;20808;-47
2022/08/16 10:35:55;;;;;;;9.57;7.20;;;28.20;96.70;;;;;;5091057;28;20419;-45
2022/08/16 10:38:21;;;;;;;9.73;7.27;;;28.30;95.80;;;;;;5089982;28;20509;-46
2022/08/16 10:40:47;;;;;;;7.43;6.73;;;28.30;95.60;;;;;;5089362;28;20553;-44
2022/08/16 10:43:13;;;;;;;9.30;7.50;;;28.40;96.00;;;;;;5091095;28;20246;-46
2022/08/16 10:45:39;;;;;;;8.60;7.30;;;28.30;95.50;;;;;;5090567;28;20253;-44
2022/08/16 10:48:08;;;;;;;8.43;7.73;;;28.20;95.60;;;;;;5089979;28;20428;-44
2022/08/16 10:50:35;;;;;;;8.60;7.80;;;28.20;95.90;;;;;;5090434;28;20489;-46
2022/08/16 10:53:05;;;;;;;8.20;7.20;;;28.10;95.70;;;;;;5089317;28;20430;-46
2022/08/16 10:55:35;;;;;;;7.60;6.90;;;28.10;95.50;;;;;;5072464;28;20475;-47
2022/08/16 10:58:06;;;;;;;7.90;7.13;;;28.20;95.10;;;;;;5088283;28;20418;-50
2022/08/16 11:00:32;;;;;;;9.40;7.37;;;28.30;95.60;;;;;;5090375;28;20418;-49
2022/08/16 11:03:02;;;;;;;7.47;6.77;;;28.40;94.20;;;;;;5090360;28;20444;-44
2022/08/16 11:05:30;;;;;;;7.60;6.90;;;28.60;94.70;;;;;;5090247;28;20468;-47
2022/08/16 11:07:57;;;;;;;8.27;7.57;;;28.50;94.40;;;;;;5090084;28;20464;-47
2022/08/16 11:10:32;;;;;;;10.80;7.10;;;28.60;94.80;;;;;;5089763;28;20423;-44
2022/08/16 11:12:59;;;;;;;9.17;6.87;;;28.70;95.30;;;;;;5088528;28;20458;-49
2022/08/16 11:15:25;;;;;;;7.43;6.73;;;28.80;93.70;;;;;;5088306;28;20457;-44
2022/08/16 11:17:53;;;;;;;7.17;6.57;;;28.90;92.90;;;;;;5088905;28;20808;-43
2022/08/16 11:20:19;;;;;;;6.87;6.20;;;29.00;93.40;;;;;;5088904;28;20422;-44
2022/08/16 11:22:49;;;;;;;7.40;6.80;;;29.10;93.10;;;;;;5089890;28;20529;-46
2022/08/16 11:25:19;;;;;;;6.90;6.30;;;29.20;92.20;;;;;;5089219;28;20951;-46
2022/08/16 11:27:45;;;;;;;8.23;6.17;;;29.20;91.20;;;;;;5089357;28;20418;-46
2022/08/16 11:30:13;;;;;;;7.70;6.30;;;29.20;90.90;;;;;;5090022;28;20976;-46
2022/08/16 11:32:43;;;;;;;7.17;6.47;;;29.30;91.00;;;;;;5088271;28;20564;-47
2022/08/16 11:35:11;;;;;;;7.50;6.90;;;29.30;90.20;;;;;;5089937;28;20479;-45
2022/08/16 11:37:37;;;;;;;7.13;6.43;;;29.30;90.40;;;;;;5088585;28;20430;-46
2022/08/16 11:40:07;;;;;;;9.43;6.73;;;29.30;90.20;;;;;;5089490;28;20430;-46
2022/08/16 11:42:33;;;;;;;7.47;6.87;;;29.20;90.10;;;;;;5089399;28;20469;-44
2022/08/16 11:44:59;;;;;;;6.70;6.10;;;29.10;90.30;;;;;;5089820;28;20745;-46
2022/08/16 11:47:24;;;;;;;7.10;6.40;;;29.10;90.70;;;;;;5089125;28;20422;-50
2022/08/16 11:49:50;;;;;;;6.50;5.90;;;29.20;90.90;;;;;;5089294;28;20847;-42
2022/08/16 11:52:16;;;;;;;6.57;5.97;;;29.20;90.70;;;;;;5081702;28;20196;-47
2022/08/16 11:54:44;;;;;;;6.40;5.80;;;29.30;90.80;;;;;;5084669;28;20200;-45
2022/08/16 11:57:10;;;;;;;6.00;5.50;;;29.30;90.40;;;;;;5084066;28;20442;-46
2022/08/16 11:59:37;;;;;;;6.23;5.53;;;29.30;88.30;;;;;;5087533;28;20724;-43
2022/08/16 12:02:05;;;;;;;6.53;5.93;;;29.40;90.00;;;;;;5089218;28;20472;-49
2022/08/16 12:04:32;;;;;;;6.27;5.77;;;29.50;88.80;;;;;;5088590;28;20503;-44
2022/08/16 12:06:59;;;;;;;6.50;6.00;;;29.50;88.60;;;;;;5088564;28;20530;-47
2022/08/16 12:09:26;;;;;;;8.27;6.43;;;29.70;88.70;;;;;;5088900;28;20983;-43
2022/08/16 12:11:52;;;;;;;7.00;5.60;;;29.70;85.80;;;;;;5087244;28;20830;-44
2022/08/16 12:14:18;;;;;;;6.57;5.80;;;29.70;89.40;;;;;;5088736;28;20430;-46
2022/08/16 12:16:44;;;;;;;6.20;5.63;;;29.80;88.80;;;;;;5088133;28;20731;-44
2022/08/16 12:19:11;;;;;;;6.03;5.53;;;29.80;88.60;;;;;;5088366;28;20536;-44
2022/08/16 12:21:38;;;;;;;8.50;6.30;;;29.90;88.60;;;;;;5087784;28;20572;-46
2022/08/16 12:24:04;;;;;;;7.17;6.10;;;30.00;87.20;;;;;;5088927;28;20418;-45
2022/08/16 12:26:31;;;;;;;6.53;6.00;;;30.00;87.90;;;;;;5088698;28;20509;-44
2022/08/16 12:28:57;;;;;;;6.33;5.77;;;30.10;83.60;;;;;;5086193;28;20509;-45
2022/08/16 12:31:24;;;;;;;6.70;6.00;;;30.10;82.10;;;;;;5088544;28;20802;-48
2022/08/16 12:33:51;;;;;;;6.20;5.70;;;30.00;80.20;;;;;;5088560;28;20426;-45
2022/08/16 12:36:16;;;;;;;6.00;5.40;;;29.70;82.40;;;;;;5088465;28;20431;-44
2022/08/16 12:38:42;;;;;;;6.03;5.60;;;29.60;80.90;;;;;;5086342;28;20426;-43
2022/08/16 12:41:09;;;;;;;6.87;5.87;;;29.40;80.70;;;;;;5088140;28;20219;-43
2022/08/16 12:43:35;;;;;;;5.87;5.40;;;29.30;81.40;;;;;;5088178;28;20540;-45
2022/08/16 12:46:01;;;;;;;5.77;5.37;;;29.40;84.10;;;;;;5088277;28;20418;-46